sensor_id;sensor_type;location;lat;lon;timestamp;P1;durP1;ratioP1;P2;durP2;ratioP2
72132;SDS011;60008;50.826;6.896;2024-03-23T00:52:35;14.57;;;4.82;;
72132;SDS011;60008;50.826;6.896;2024-03-23T00:55:19;17.88;;;5.18;;
72132;SDS011;60008;50.826;6.896;2024-03-23T00:58:04;17.95;;;4.70;;
72132;SDS011;60008;50.826;6.896;2024-03-23T01:00:48;13.97;;;4.50;;
72132;SDS011;60008;50.826;6.896;2024-03-23T01:03:32;13.88;;;4.82;;
72132;SDS011;60008;50.826;6.896;2024-03-23T01:06:16;17.35;;;5.43;;
72132;SDS011;60008;50.826;6.896;2024-03-23T01:09:00;13.20;;;5.18;;
72132;SDS011;60008;50.826;6.896;2024-03-23T01:11:44;14.02;;;5.00;;
72132;SDS011;60008;50.826;6.896;2024-03-23T01:14:28;15.03;;;4.93;;
72132;SDS011;60008;50.826;6.896;2024-03-23T01:17:12;14.70;;;4.93;;
72132;SDS011;60008;50.826;6.896;2024-03-23T01:19:56;19.67;;;5.30;;
72132;SDS011;60008;50.826;6.896;2024-03-23T01:22:40;12.50;;;4.80;;
72132;SDS011;60008;50.826;6.896;2024-03-23T01:25:24;12.77;;;4.97;;
72132;SDS011;60008;50.826;6.896;2024-03-23T01:28:08;15.87;;;4.97;;
72132;SDS011;60008;50.826;6.896;2024-03-23T01:30:53;13.23;;;4.82;;
72132;SDS011;60008;50.826;6.896;2024-03-23T01:33:37;14.02;;;4.88;;
72132;SDS011;60008;50.826;6.896;2024-03-23T01:36:21;14.02;;;4.50;;
72132;SDS011;60008;50.826;6.896;2024-03-23T01:39:05;11.55;;;4.00;;
72132;SDS011;60008;50.826;6.896;2024-03-23T01:41:49;10.70;;;3.17;;
72132;SDS011;60008;50.826;6.896;2024-03-23T01:44:33;10.68;;;3.53;;
72132;SDS011;60008;50.826;6.896;2024-03-23T01:47:17;8.20;;;3.08;;
72132;SDS011;60008;50.826;6.896;2024-03-23T01:50:01;6.82;;;2.38;;
72132;SDS011;60008;50.826;6.896;2024-03-23T01:52:46;7.07;;;2.00;;
72132;SDS011;60008;50.826;6.896;2024-03-23T01:55:32;5.60;;;1.97;;
72132;SDS011;60008;50.826;6.896;2024-03-23T01:58:17;5.70;;;1.85;;
72132;SDS011;60008;50.826;6.896;2024-03-23T02:01:00;5.43;;;1.83;;
72132;SDS011;60008;50.826;6.896;2024-03-23T02:03:44;5.90;;;2.00;;
72132;SDS011;60008;50.826;6.896;2024-03-23T02:06:28;7.70;;;2.08;;
72132;SDS011;60008;50.826;6.896;2024-03-23T02:09:13;7.17;;;2.07;;
72132;SDS011;60008;50.826;6.896;2024-03-23T02:11:57;9.93;;;2.47;;
72132;SDS011;60008;50.826;6.896;2024-03-23T02:14:42;7.03;;;2.45;;
72132;SDS011;60008;50.826;6.896;2024-03-23T02:17:26;4.47;;;1.98;;
72132;SDS011;60008;50.826;6.896;2024-03-23T02:20:11;7.32;;;1.88;;
72132;SDS011;60008;50.826;6.896;2024-03-23T02:22:55;6.63;;;2.40;;
72132;SDS011;60008;50.826;6.896;2024-03-23T02:25:39;8.30;;;2.45;;
72132;SDS011;60008;50.826;6.896;2024-03-23T02:28:23;7.18;;;2.75;;
72132;SDS011;60008;50.826;6.896;2024-03-23T02:31:08;7.53;;;2.00;;
72132;SDS011;60008;50.826;6.896;2024-03-23T02:33:52;7.95;;;2.05;;
72132;SDS011;60008;50.826;6.896;2024-03-23T02:36:36;3.97;;;1.30;;
72132;SDS011;60008;50.826;6.896;2024-03-23T02:39:20;6.18;;;0.90;;
72132;SDS011;60008;50.826;6.896;2024-03-23T02:42:04;4.30;;;1.08;;
72132;SDS011;60008;50.826;6.896;2024-03-23T02:44:48;6.38;;;0.63;;
72132;SDS011;60008;50.826;6.896;2024-03-23T02:47:33;5.45;;;0.90;;
72132;SDS011;60008;50.826;6.896;2024-03-23T02:50:18;3.60;;;0.50;;
72132;SDS011;60008;50.826;6.896;2024-03-23T02:53:03;2.03;;;0.60;;
72132;SDS011;60008;50.826;6.896;2024-03-23T02:55:48;5.57;;;0.73;;
72132;SDS011;60008;50.826;6.896;2024-03-23T02:58:32;5.05;;;0.70;;
72132;SDS011;60008;50.826;6.896;2024-03-23T03:01:16;5.13;;;0.63;;
72132;SDS011;60008;50.826;6.896;2024-03-23T03:04:00;3.53;;;0.63;;
72132;SDS011;60008;50.826;6.896;2024-03-23T03:06:47;4.18;;;0.52;;
72132;SDS011;60008;50.826;6.896;2024-03-23T03:09:31;5.05;;;0.63;;
72132;SDS011;60008;50.826;6.896;2024-03-23T03:12:17;5.35;;;0.63;;
72132;SDS011;60008;50.826;6.896;2024-03-23T03:15:01;3.85;;;0.60;;
72132;SDS011;60008;50.826;6.896;2024-03-23T03:17:46;1.80;;;0.47;;
72132;SDS011;60008;50.826;6.896;2024-03-23T03:20:30;2.50;;;0.63;;
72132;SDS011;60008;50.826;6.896;2024-03-23T03:23:15;3.33;;;0.63;;
72132;SDS011;60008;50.826;6.896;2024-03-23T03:26:00;8.10;;;1.02;;
72132;SDS011;60008;50.826;6.896;2024-03-23T03:28:44;7.57;;;0.70;;
72132;SDS011;60008;50.826;6.896;2024-03-23T03:31:32;3.03;;;0.77;;
72132;SDS011;60008;50.826;6.896;2024-03-23T03:34:16;4.13;;;0.80;;
72132;SDS011;60008;50.826;6.896;2024-03-23T03:37:00;8.00;;;0.90;;
72132;SDS011;60008;50.826;6.896;2024-03-23T03:39:44;5.35;;;0.80;;
72132;SDS011;60008;50.826;6.896;2024-03-23T03:42:28;6.40;;;0.90;;
72132;SDS011;60008;50.826;6.896;2024-03-23T03:45:12;6.93;;;0.90;;
72132;SDS011;60008;50.826;6.896;2024-03-23T03:47:57;6.43;;;0.70;;
72132;SDS011;60008;50.826;6.896;2024-03-23T03:50:41;4.38;;;0.80;;
72132;SDS011;60008;50.826;6.896;2024-03-23T03:53:25;5.30;;;0.60;;
72132;SDS011;60008;50.826;6.896;2024-03-23T03:56:10;5.70;;;0.75;;
72132;SDS011;60008;50.826;6.896;2024-03-23T03:58:54;11.93;;;0.97;;
72132;SDS011;60008;50.826;6.896;2024-03-23T04:01:38;8.90;;;1.00;;
72132;SDS011;60008;50.826;6.896;2024-03-23T04:04:22;7.07;;;0.80;;
72132;SDS011;60008;50.826;6.896;2024-03-23T04:07:06;4.63;;;0.70;;
72132;SDS011;60008;50.826;6.896;2024-03-23T04:09:50;4.82;;;1.20;;
72132;SDS011;60008;50.826;6.896;2024-03-23T04:12:34;8.37;;;1.37;;
72132;SDS011;60008;50.826;6.896;2024-03-23T04:15:18;6.25;;;1.20;;
72132;SDS011;60008;50.826;6.896;2024-03-23T04:18:02;7.05;;;1.33;;
72132;SDS011;60008;50.826;6.896;2024-03-23T04:20:46;6.20;;;1.60;;
72132;SDS011;60008;50.826;6.896;2024-03-23T04:23:31;7.35;;;1.42;;
72132;SDS011;60008;50.826;6.896;2024-03-23T04:26:15;6.47;;;0.93;;
72132;SDS011;60008;50.826;6.896;2024-03-23T04:29:00;11.35;;;1.08;;
72132;SDS011;60008;50.826;6.896;2024-03-23T04:31:44;8.13;;;1.20;;
72132;SDS011;60008;50.826;6.896;2024-03-23T04:34:28;10.23;;;1.67;;
72132;SDS011;60008;50.826;6.896;2024-03-23T04:37:13;6.07;;;0.65;;
72132;SDS011;60008;50.826;6.896;2024-03-23T04:39:57;4.83;;;1.00;;
72132;SDS011;60008;50.826;6.896;2024-03-23T04:42:41;8.45;;;1.08;;
72132;SDS011;60008;50.826;6.896;2024-03-23T04:45:25;6.03;;;0.85;;
72132;SDS011;60008;50.826;6.896;2024-03-23T04:48:09;6.05;;;0.90;;
72132;SDS011;60008;50.826;6.896;2024-03-23T04:50:57;6.90;;;0.88;;
72132;SDS011;60008;50.826;6.896;2024-03-23T04:53:41;3.13;;;0.73;;
72132;SDS011;60008;50.826;6.896;2024-03-23T04:56:25;7.97;;;1.17;;
72132;SDS011;60008;50.826;6.896;2024-03-23T04:59:09;8.02;;;1.20;;
72132;SDS011;60008;50.826;6.896;2024-03-23T05:01:53;7.13;;;0.73;;
72132;SDS011;60008;50.826;6.896;2024-03-23T05:04:37;6.07;;;0.80;;
72132;SDS011;60008;50.826;6.896;2024-03-23T05:07:21;7.37;;;0.80;;
72132;SDS011;60008;50.826;6.896;2024-03-23T05:10:06;3.67;;;0.70;;
72132;SDS011;60008;50.826;6.896;2024-03-23T05:12:54;4.65;;;0.90;;
72132;SDS011;60008;50.826;6.896;2024-03-23T05:15:38;7.63;;;0.85;;
72132;SDS011;60008;50.826;6.896;2024-03-23T05:18:22;6.90;;;1.05;;
72132;SDS011;60008;50.826;6.896;2024-03-23T05:21:06;4.13;;;0.83;;
72132;SDS011;60008;50.826;6.896;2024-03-23T05:23:50;3.45;;;0.75;;
72132;SDS011;60008;50.826;6.896;2024-03-23T05:26:35;6.50;;;0.80;;
72132;SDS011;60008;50.826;6.896;2024-03-23T05:29:19;6.72;;;1.15;;
72132;SDS011;60008;50.826;6.896;2024-03-23T05:32:03;11.05;;;1.17;;
72132;SDS011;60008;50.826;6.896;2024-03-23T05:34:48;6.47;;;1.10;;
72132;SDS011;60008;50.826;6.896;2024-03-23T05:37:34;5.63;;;0.90;;
72132;SDS011;60008;50.826;6.896;2024-03-23T05:40:18;7.00;;;0.70;;
72132;SDS011;60008;50.826;6.896;2024-03-23T05:43:02;11.38;;;1.20;;
72132;SDS011;60008;50.826;6.896;2024-03-23T05:45:52;6.88;;;1.05;;
72132;SDS011;60008;50.826;6.896;2024-03-23T05:48:37;5.10;;;0.80;;
72132;SDS011;60008;50.826;6.896;2024-03-23T05:51:21;3.42;;;0.80;;
72132;SDS011;60008;50.826;6.896;2024-03-23T05:54:05;4.57;;;0.98;;
72132;SDS011;60008;50.826;6.896;2024-03-23T05:56:49;8.40;;;0.95;;
72132;SDS011;60008;50.826;6.896;2024-03-23T05:59:33;4.15;;;1.00;;
72132;SDS011;60008;50.826;6.896;2024-03-23T06:02:17;9.93;;;1.43;;
72132;SDS011;60008;50.826;6.896;2024-03-23T06:05:01;6.38;;;1.42;;
72132;SDS011;60008;50.826;6.896;2024-03-23T06:07:46;4.65;;;1.08;;
72132;SDS011;60008;50.826;6.896;2024-03-23T06:10:30;7.90;;;1.17;;
72132;SDS011;60008;50.826;6.896;2024-03-23T06:13:15;6.15;;;1.00;;
72132;SDS011;60008;50.826;6.896;2024-03-23T06:15:59;7.53;;;1.63;;
72132;SDS011;60008;50.826;6.896;2024-03-23T06:18:44;8.93;;;1.30;;
72132;SDS011;60008;50.826;6.896;2024-03-23T06:21:28;9.95;;;1.23;;
72132;SDS011;60008;50.826;6.896;2024-03-23T06:24:12;7.95;;;1.23;;
72132;SDS011;60008;50.826;6.896;2024-03-23T06:26:56;9.23;;;1.33;;
72132;SDS011;60008;50.826;6.896;2024-03-23T06:29:40;7.03;;;1.37;;
72132;SDS011;60008;50.826;6.896;2024-03-23T06:32:24;9.57;;;1.30;;
72132;SDS011;60008;50.826;6.896;2024-03-23T06:35:08;7.55;;;1.23;;
72132;SDS011;60008;50.826;6.896;2024-03-23T06:37:53;10.60;;;1.83;;
72132;SDS011;60008;50.826;6.896;2024-03-23T06:40:37;10.00;;;1.20;;
72132;SDS011;60008;50.826;6.896;2024-03-23T06:43:21;5.93;;;0.97;;
72132;SDS011;60008;50.826;6.896;2024-03-23T06:46:05;9.55;;;1.40;;
72132;SDS011;60008;50.826;6.896;2024-03-23T06:48:49;11.20;;;1.52;;
72132;SDS011;60008;50.826;6.896;2024-03-23T06:51:33;13.30;;;1.38;;
72132;SDS011;60008;50.826;6.896;2024-03-23T06:54:19;9.30;;;1.20;;
72132;SDS011;60008;50.826;6.896;2024-03-23T06:57:04;7.63;;;1.30;;
72132;SDS011;60008;50.826;6.896;2024-03-23T06:59:48;6.85;;;1.13;;
72132;SDS011;60008;50.826;6.896;2024-03-23T07:02:33;9.95;;;1.35;;
72132;SDS011;60008;50.826;6.896;2024-03-23T07:05:17;4.45;;;1.23;;
72132;SDS011;60008;50.826;6.896;2024-03-23T07:08:01;6.85;;;1.35;;
72132;SDS011;60008;50.826;6.896;2024-03-23T07:10:45;7.17;;;1.93;;
72132;SDS011;60008;50.826;6.896;2024-03-23T07:13:29;11.13;;;1.88;;
72132;SDS011;60008;50.826;6.896;2024-03-23T07:16:13;6.50;;;1.70;;
72132;SDS011;60008;50.826;6.896;2024-03-23T07:18:57;8.80;;;1.80;;
72132;SDS011;60008;50.826;6.896;2024-03-23T07:21:42;9.75;;;1.83;;
72132;SDS011;60008;50.826;6.896;2024-03-23T07:24:27;11.27;;;2.30;;
72132;SDS011;60008;50.826;6.896;2024-03-23T07:27:11;8.88;;;2.05;;
72132;SDS011;60008;50.826;6.896;2024-03-23T07:29:55;8.57;;;1.98;;
72132;SDS011;60008;50.826;6.896;2024-03-23T07:32:39;7.72;;;2.38;;
72132;SDS011;60008;50.826;6.896;2024-03-23T07:35:23;8.63;;;2.35;;
72132;SDS011;60008;50.826;6.896;2024-03-23T07:38:07;10.60;;;2.83;;
72132;SDS011;60008;50.826;6.896;2024-03-23T07:40:50;8.10;;;2.53;;
72132;SDS011;60008;50.826;6.896;2024-03-23T07:43:40;11.20;;;3.15;;
72132;SDS011;60008;50.826;6.896;2024-03-23T07:46:24;11.20;;;2.92;;
72132;SDS011;60008;50.826;6.896;2024-03-23T07:49:09;12.40;;;3.25;;
72132;SDS011;60008;50.826;6.896;2024-03-23T07:51:53;10.10;;;2.70;;
72132;SDS011;60008;50.826;6.896;2024-03-23T07:54:38;9.27;;;2.97;;
72132;SDS011;60008;50.826;6.896;2024-03-23T07:57:22;9.75;;;2.75;;
72132;SDS011;60008;50.826;6.896;2024-03-23T08:00:06;8.55;;;2.45;;
72132;SDS011;60008;50.826;6.896;2024-03-23T08:02:51;7.20;;;2.17;;
72132;SDS011;60008;50.826;6.896;2024-03-23T08:05:35;4.60;;;1.23;;
72132;SDS011;60008;50.826;6.896;2024-03-23T08:08:19;6.20;;;1.15;;
72132;SDS011;60008;50.826;6.896;2024-03-23T08:11:04;5.85;;;1.10;;
72132;SDS011;60008;50.826;6.896;2024-03-23T08:13:48;5.78;;;1.40;;
72132;SDS011;60008;50.826;6.896;2024-03-23T08:16:32;4.00;;;0.70;;
72132;SDS011;60008;50.826;6.896;2024-03-23T08:19:18;2.47;;;0.70;;
72132;SDS011;60008;50.826;6.896;2024-03-23T08:22:02;3.33;;;0.90;;
72132;SDS011;60008;50.826;6.896;2024-03-23T08:24:47;4.75;;;0.85;;
72132;SDS011;60008;50.826;6.896;2024-03-23T08:27:31;4.85;;;1.05;;
72132;SDS011;60008;50.826;6.896;2024-03-23T08:30:15;5.28;;;1.00;;
72132;SDS011;60008;50.826;6.896;2024-03-23T08:32:59;4.87;;;1.20;;
72132;SDS011;60008;50.826;6.896;2024-03-23T08:35:52;4.65;;;1.30;;
72132;SDS011;60008;50.826;6.896;2024-03-23T08:38:46;9.52;;;1.92;;
72132;SDS011;60008;50.826;6.896;2024-03-23T08:41:31;7.07;;;1.90;;
72132;SDS011;60008;50.826;6.896;2024-03-23T08:44:15;8.55;;;2.60;;
72132;SDS011;60008;50.826;6.896;2024-03-23T08:46:59;10.30;;;2.90;;
72132;SDS011;60008;50.826;6.896;2024-03-23T08:49:44;11.40;;;3.63;;
72132;SDS011;60008;50.826;6.896;2024-03-23T08:52:28;9.20;;;3.58;;
72132;SDS011;60008;50.826;6.896;2024-03-23T08:55:13;11.18;;;3.20;;
72132;SDS011;60008;50.826;6.896;2024-03-23T08:57:58;11.65;;;3.55;;
72132;SDS011;60008;50.826;6.896;2024-03-23T09:00:42;9.47;;;3.70;;
72132;SDS011;60008;50.826;6.896;2024-03-23T09:03:27;10.32;;;3.90;;
72132;SDS011;60008;50.826;6.896;2024-03-23T09:06:12;9.05;;;3.65;;
72132;SDS011;60008;50.826;6.896;2024-03-23T09:08:58;12.77;;;3.38;;
72132;SDS011;60008;50.826;6.896;2024-03-23T09:11:42;11.50;;;2.78;;
72132;SDS011;60008;50.826;6.896;2024-03-23T09:14:26;9.13;;;2.77;;
72132;SDS011;60008;50.826;6.896;2024-03-23T09:17:10;13.75;;;2.78;;
72132;SDS011;60008;50.826;6.896;2024-03-23T09:19:55;7.45;;;2.40;;
72132;SDS011;60008;50.826;6.896;2024-03-23T09:22:40;8.55;;;2.20;;
72132;SDS011;60008;50.826;6.896;2024-03-23T09:25:24;10.73;;;2.13;;
72132;SDS011;60008;50.826;6.896;2024-03-23T09:28:08;8.87;;;2.50;;
72132;SDS011;60008;50.826;6.896;2024-03-23T09:30:52;9.88;;;2.10;;
72132;SDS011;60008;50.826;6.896;2024-03-23T09:33:36;9.43;;;2.10;;
72132;SDS011;60008;50.826;6.896;2024-03-23T09:36:20;4.80;;;1.50;;
72132;SDS011;60008;50.826;6.896;2024-03-23T09:39:04;7.82;;;1.60;;
72132;SDS011;60008;50.826;6.896;2024-03-23T09:41:49;9.23;;;1.77;;
72132;SDS011;60008;50.826;6.896;2024-03-23T09:44:33;8.38;;;1.60;;
72132;SDS011;60008;50.826;6.896;2024-03-23T09:47:19;4.72;;;1.50;;
72132;SDS011;60008;50.826;6.896;2024-03-23T09:50:04;5.88;;;1.23;;
72132;SDS011;60008;50.826;6.896;2024-03-23T09:52:50;5.78;;;1.50;;
72132;SDS011;60008;50.826;6.896;2024-03-23T09:55:34;7.77;;;1.57;;
72132;SDS011;60008;50.826;6.896;2024-03-23T09:58:23;5.72;;;1.58;;
72132;SDS011;60008;50.826;6.896;2024-03-23T10:01:07;7.55;;;1.60;;
72132;SDS011;60008;50.826;6.896;2024-03-23T10:03:52;6.55;;;1.52;;
72132;SDS011;60008;50.826;6.896;2024-03-23T10:06:36;6.03;;;1.35;;
72132;SDS011;60008;50.826;6.896;2024-03-23T10:09:20;10.87;;;1.60;;
72132;SDS011;60008;50.826;6.896;2024-03-23T10:12:09;7.30;;;2.20;;
72132;SDS011;60008;50.826;6.896;2024-03-23T10:14:55;7.78;;;1.27;;
72132;SDS011;60008;50.826;6.896;2024-03-23T10:17:39;15.80;;;1.40;;
72132;SDS011;60008;50.826;6.896;2024-03-23T10:20:23;7.88;;;1.25;;
72132;SDS011;60008;50.826;6.896;2024-03-23T10:23:15;3.33;;;0.57;;
72132;SDS011;60008;50.826;6.896;2024-03-23T10:26:12;4.40;;;1.00;;
72132;SDS011;60008;50.826;6.896;2024-03-23T10:29:06;9.30;;;0.85;;
72132;SDS011;60008;50.826;6.896;2024-03-23T10:32:07;3.53;;;0.47;;
72132;SDS011;60008;50.826;6.896;2024-03-23T10:34:57;3.20;;;0.40;;
72132;SDS011;60008;50.826;6.896;2024-03-23T10:37:57;2.43;;;0.50;;
72132;SDS011;60008;50.826;6.896;2024-03-23T10:40:41;6.38;;;0.63;;
72132;SDS011;60008;50.826;6.896;2024-03-23T10:43:26;4.20;;;0.60;;
72132;SDS011;60008;50.826;6.896;2024-03-23T10:46:10;1.60;;;0.35;;
72132;SDS011;60008;50.826;6.896;2024-03-23T10:48:54;5.55;;;1.15;;
72132;SDS011;60008;50.826;6.896;2024-03-23T10:51:38;5.77;;;0.50;;
72132;SDS011;60008;50.826;6.896;2024-03-23T10:54:22;3.35;;;0.70;;
72132;SDS011;60008;50.826;6.896;2024-03-23T10:57:09;5.25;;;0.85;;
72132;SDS011;60008;50.826;6.896;2024-03-23T10:59:57;4.35;;;0.60;;
72132;SDS011;60008;50.826;6.896;2024-03-23T11:02:41;5.75;;;0.65;;
72132;SDS011;60008;50.826;6.896;2024-03-23T11:05:31;2.90;;;0.57;;
72132;SDS011;60008;50.826;6.896;2024-03-23T11:08:29;3.10;;;0.63;;
72132;SDS011;60008;50.826;6.896;2024-03-23T11:11:14;7.57;;;0.80;;
72132;SDS011;60008;50.826;6.896;2024-03-23T11:14:05;2.83;;;0.70;;
72132;SDS011;60008;50.826;6.896;2024-03-23T11:17:10;7.82;;;1.67;;
72132;SDS011;60008;50.826;6.896;2024-03-23T11:19:58;2.83;;;0.70;;
72132;SDS011;60008;50.826;6.896;2024-03-23T11:22:49;2.45;;;1.00;;
72132;SDS011;60008;50.826;6.896;2024-03-23T11:25:36;5.22;;;1.05;;
72132;SDS011;60008;50.826;6.896;2024-03-23T11:28:20;5.10;;;1.45;;
72132;SDS011;60008;50.826;6.896;2024-03-23T11:31:09;4.93;;;1.42;;
72132;SDS011;60008;50.826;6.896;2024-03-23T11:34:02;6.23;;;1.70;;
72132;SDS011;60008;50.826;6.896;2024-03-23T11:36:47;6.30;;;1.70;;
72132;SDS011;60008;50.826;6.896;2024-03-23T11:39:32;5.97;;;1.50;;
72132;SDS011;60008;50.826;6.896;2024-03-23T11:42:16;5.90;;;1.50;;
72132;SDS011;60008;50.826;6.896;2024-03-23T11:45:07;4.57;;;1.30;;
72132;SDS011;60008;50.826;6.896;2024-03-23T11:48:11;5.70;;;1.30;;
72132;SDS011;60008;50.826;6.896;2024-03-23T11:50:57;5.55;;;1.52;;
72132;SDS011;60008;50.826;6.896;2024-03-23T11:53:42;2.80;;;1.10;;
72132;SDS011;60008;50.826;6.896;2024-03-23T11:56:26;3.03;;;0.85;;
72132;SDS011;60008;50.826;6.896;2024-03-23T11:59:09;6.50;;;1.23;;
72132;SDS011;60008;50.826;6.896;2024-03-23T12:01:55;5.63;;;1.17;;
72132;SDS011;60008;50.826;6.896;2024-03-23T12:04:39;3.75;;;1.13;;
72132;SDS011;60008;50.826;6.896;2024-03-23T12:07:24;5.82;;;1.25;;
72132;SDS011;60008;50.826;6.896;2024-03-23T12:10:08;2.92;;;0.90;;
72132;SDS011;60008;50.826;6.896;2024-03-23T12:12:59;3.50;;;0.85;;
72132;SDS011;60008;50.826;6.896;2024-03-23T12:15:49;2.30;;;0.73;;
72132;SDS011;60008;50.826;6.896;2024-03-23T12:18:34;6.72;;;1.20;;
72132;SDS011;60008;50.826;6.896;2024-03-23T12:21:18;4.53;;;0.68;;
72132;SDS011;60008;50.826;6.896;2024-03-23T12:24:02;3.50;;;1.08;;
72132;SDS011;60008;50.826;6.896;2024-03-23T12:26:47;4.13;;;0.90;;
72132;SDS011;60008;50.826;6.896;2024-03-23T12:29:34;1.30;;;0.50;;
72132;SDS011;60008;50.826;6.896;2024-03-23T12:32:18;5.00;;;0.80;;
72132;SDS011;60008;50.826;6.896;2024-03-23T12:35:03;3.67;;;0.60;;
72132;SDS011;60008;50.826;6.896;2024-03-23T12:37:47;1.95;;;0.47;;
72132;SDS011;60008;50.826;6.896;2024-03-23T12:40:31;2.22;;;0.80;;
72132;SDS011;60008;50.826;6.896;2024-03-23T12:43:15;2.27;;;0.50;;
72132;SDS011;60008;50.826;6.896;2024-03-23T12:45:59;1.55;;;0.50;;
72132;SDS011;60008;50.826;6.896;2024-03-23T12:48:46;3.28;;;0.77;;
72132;SDS011;60008;50.826;6.896;2024-03-23T12:51:30;2.33;;;0.63;;
72132;SDS011;60008;50.826;6.896;2024-03-23T12:54:15;2.00;;;0.47;;
72132;SDS011;60008;50.826;6.896;2024-03-23T12:56:59;1.67;;;0.50;;
72132;SDS011;60008;50.826;6.896;2024-03-23T12:59:43;2.67;;;0.43;;
72132;SDS011;60008;50.826;6.896;2024-03-23T13:02:27;1.20;;;0.30;;
72132;SDS011;60008;50.826;6.896;2024-03-23T13:05:11;2.13;;;0.45;;
72132;SDS011;60008;50.826;6.896;2024-03-23T13:07:55;1.73;;;0.50;;
72132;SDS011;60008;50.826;6.896;2024-03-23T13:10:40;1.10;;;0.40;;
72132;SDS011;60008;50.826;6.896;2024-03-23T13:13:24;3.33;;;0.70;;
72132;SDS011;60008;50.826;6.896;2024-03-23T13:16:08;3.65;;;0.55;;
72132;SDS011;60008;50.826;6.896;2024-03-23T13:18:52;3.50;;;0.43;;
72132;SDS011;60008;50.826;6.896;2024-03-23T13:21:36;2.28;;;0.43;;
72132;SDS011;60008;50.826;6.896;2024-03-23T13:24:22;1.77;;;0.50;;
72132;SDS011;60008;50.826;6.896;2024-03-23T13:27:07;5.18;;;1.10;;
72132;SDS011;60008;50.826;6.896;2024-03-23T13:29:51;5.85;;;1.40;;
72132;SDS011;60008;50.826;6.896;2024-03-23T13:32:35;3.80;;;1.10;;
72132;SDS011;60008;50.826;6.896;2024-03-23T13:35:20;4.20;;;1.23;;
72132;SDS011;60008;50.826;6.896;2024-03-23T13:38:04;6.77;;;1.47;;
72132;SDS011;60008;50.826;6.896;2024-03-23T13:40:51;4.82;;;1.10;;
72132;SDS011;60008;50.826;6.896;2024-03-23T13:43:36;6.78;;;2.15;;
72132;SDS011;60008;50.826;6.896;2024-03-23T13:46:19;4.47;;;1.30;;
72132;SDS011;60008;50.826;6.896;2024-03-23T13:49:04;4.57;;;1.40;;
72132;SDS011;60008;50.826;6.896;2024-03-23T13:51:49;6.37;;;1.20;;
72132;SDS011;60008;50.826;6.896;2024-03-23T13:54:33;5.32;;;1.60;;
72132;SDS011;60008;50.826;6.896;2024-03-23T13:57:17;3.97;;;1.15;;
72132;SDS011;60008;50.826;6.896;2024-03-23T14:00:06;4.50;;;1.27;;
72132;SDS011;60008;50.826;6.896;2024-03-23T14:02:51;3.15;;;0.93;;
72132;SDS011;60008;50.826;6.896;2024-03-23T14:05:36;4.93;;;1.13;;
72132;SDS011;60008;50.826;6.896;2024-03-23T14:08:22;3.20;;;0.73;;
72132;SDS011;60008;50.826;6.896;2024-03-23T14:11:06;2.47;;;0.63;;
72132;SDS011;60008;50.826;6.896;2024-03-23T14:13:50;4.30;;;0.73;;
72132;SDS011;60008;50.826;6.896;2024-03-23T14:16:34;2.33;;;0.55;;
72132;SDS011;60008;50.826;6.896;2024-03-23T14:19:19;3.90;;;0.70;;
72132;SDS011;60008;50.826;6.896;2024-03-23T14:22:03;2.50;;;0.50;;
72132;SDS011;60008;50.826;6.896;2024-03-23T14:24:48;3.35;;;0.50;;
72132;SDS011;60008;50.826;6.896;2024-03-23T14:27:32;3.30;;;0.60;;
72132;SDS011;60008;50.826;6.896;2024-03-23T14:30:20;3.42;;;0.60;;
72132;SDS011;60008;50.826;6.896;2024-03-23T14:33:05;4.13;;;0.73;;
72132;SDS011;60008;50.826;6.896;2024-03-23T14:35:52;2.38;;;0.47;;
72132;SDS011;60008;50.826;6.896;2024-03-23T14:38:37;1.67;;;0.52;;
72132;SDS011;60008;50.826;6.896;2024-03-23T14:41:22;3.15;;;0.63;;
72132;SDS011;60008;50.826;6.896;2024-03-23T14:44:06;1.73;;;0.70;;
72132;SDS011;60008;50.826;6.896;2024-03-23T14:46:50;3.83;;;0.60;;
72132;SDS011;60008;50.826;6.896;2024-03-23T14:49:34;4.60;;;0.80;;
72132;SDS011;60008;50.826;6.896;2024-03-23T14:52:18;2.15;;;0.60;;
72132;SDS011;60008;50.826;6.896;2024-03-23T14:55:05;4.03;;;0.80;;
72132;SDS011;60008;50.826;6.896;2024-03-23T14:57:49;3.20;;;0.88;;
72132;SDS011;60008;50.826;6.896;2024-03-23T15:00:34;3.47;;;0.70;;
72132;SDS011;60008;50.826;6.896;2024-03-23T15:03:19;0.82;;;0.20;;
72132;SDS011;60008;50.826;6.896;2024-03-23T15:06:03;2.67;;;0.47;;
72132;SDS011;60008;50.826;6.896;2024-03-23T15:08:47;1.63;;;0.25;;
72132;SDS011;60008;50.826;6.896;2024-03-23T15:11:31;2.58;;;0.43;;
72132;SDS011;60008;50.826;6.896;2024-03-23T15:14:16;3.67;;;0.57;;
72132;SDS011;60008;50.826;6.896;2024-03-23T15:17:00;1.13;;;0.30;;
72132;SDS011;60008;50.826;6.896;2024-03-23T15:19:48;2.38;;;0.50;;
72132;SDS011;60008;50.826;6.896;2024-03-23T15:22:32;4.40;;;0.50;;
72132;SDS011;60008;50.826;6.896;2024-03-23T15:25:16;3.97;;;0.60;;
72132;SDS011;60008;50.826;6.896;2024-03-23T15:28:00;1.87;;;0.50;;
72132;SDS011;60008;50.826;6.896;2024-03-23T15:30:46;2.83;;;0.85;;
72132;SDS011;60008;50.826;6.896;2024-03-23T15:33:29;4.93;;;1.60;;
72132;SDS011;60008;50.826;6.896;2024-03-23T15:36:14;1.98;;;0.70;;
72132;SDS011;60008;50.826;6.896;2024-03-23T15:38:58;2.40;;;0.60;;
72132;SDS011;60008;50.826;6.896;2024-03-23T15:41:43;4.20;;;0.70;;
72132;SDS011;60008;50.826;6.896;2024-03-23T15:44:31;3.30;;;0.60;;
72132;SDS011;60008;50.826;6.896;2024-03-23T15:47:15;4.40;;;0.68;;
72132;SDS011;60008;50.826;6.896;2024-03-23T15:50:00;2.25;;;0.85;;
72132;SDS011;60008;50.826;6.896;2024-03-23T15:52:44;4.65;;;0.98;;
72132;SDS011;60008;50.826;6.896;2024-03-23T15:55:28;1.80;;;0.60;;
72132;SDS011;60008;50.826;6.896;2024-03-23T15:58:12;2.25;;;0.63;;
72132;SDS011;60008;50.826;6.896;2024-03-23T16:01:14;5.47;;;0.80;;
72132;SDS011;60008;50.826;6.896;2024-03-23T16:03:58;3.95;;;0.90;;
72132;SDS011;60008;50.826;6.896;2024-03-23T16:06:42;2.30;;;0.90;;
72132;SDS011;60008;50.826;6.896;2024-03-23T16:09:28;7.00;;;1.40;;
72132;SDS011;60008;50.826;6.896;2024-03-23T16:12:12;5.35;;;1.02;;
72132;SDS011;60008;50.826;6.896;2024-03-23T16:14:56;2.75;;;0.90;;
72132;SDS011;60008;50.826;6.896;2024-03-23T16:17:40;3.53;;;0.70;;
72132;SDS011;60008;50.826;6.896;2024-03-23T16:20:24;1.20;;;0.40;;
72132;SDS011;60008;50.826;6.896;2024-03-23T16:23:08;1.80;;;0.50;;
72132;SDS011;60008;50.826;6.896;2024-03-23T16:25:53;0.73;;;0.20;;
72132;SDS011;60008;50.826;6.896;2024-03-23T16:28:41;0.98;;;0.20;;
72132;SDS011;60008;50.826;6.896;2024-03-23T16:31:25;3.53;;;0.22;;
72132;SDS011;60008;50.826;6.896;2024-03-23T16:34:09;1.40;;;0.20;;
72132;SDS011;60008;50.826;6.896;2024-03-23T16:36:53;0.90;;;0.43;;
72132;SDS011;60008;50.826;6.896;2024-03-23T16:39:37;1.48;;;0.30;;
72132;SDS011;60008;50.826;6.896;2024-03-23T16:42:21;0.82;;;0.20;;
72132;SDS011;60008;50.826;6.896;2024-03-23T16:45:05;0.68;;;0.20;;
72132;SDS011;60008;50.826;6.896;2024-03-23T16:47:51;1.88;;;0.30;;
72132;SDS011;60008;50.826;6.896;2024-03-23T16:50:36;1.07;;;0.30;;
72132;SDS011;60008;50.826;6.896;2024-03-23T16:53:20;1.20;;;0.28;;
72132;SDS011;60008;50.826;6.896;2024-03-23T16:56:04;0.77;;;0.20;;
72132;SDS011;60008;50.826;6.896;2024-03-23T16:58:51;1.40;;;0.20;;
72132;SDS011;60008;50.826;6.896;2024-03-23T17:01:35;1.65;;;0.40;;
72132;SDS011;60008;50.826;6.896;2024-03-23T17:04:20;1.30;;;0.50;;
72132;SDS011;60008;50.826;6.896;2024-03-23T17:07:06;1.23;;;0.32;;
72132;SDS011;60008;50.826;6.896;2024-03-23T17:09:50;1.80;;;0.40;;
72132;SDS011;60008;50.826;6.896;2024-03-23T17:12:34;1.90;;;0.57;;
72132;SDS011;60008;50.826;6.896;2024-03-23T17:15:18;2.60;;;0.60;;
72132;SDS011;60008;50.826;6.896;2024-03-23T17:18:05;3.23;;;0.70;;
72132;SDS011;60008;50.826;6.896;2024-03-23T17:20:51;1.40;;;0.40;;
72132;SDS011;60008;50.826;6.896;2024-03-23T17:23:35;2.88;;;0.70;;